Terminal Aerodrome Forecast
Issued by NWS Green Bay, WI

Home | Current Version | Previous Version | Text Only | Print | Product List | Glossary Off
Versions: 1 2 3 4 5 6 7 8 9 10 11 12 13 14 15 16 17 18 19 20 21 22 23 24 25 26

000
FTUS43 KGRB 252300
TAFGRB
TAF
KGRB 252322Z 2600/2624 03006KT P6SM BKN090
     FM260400 02006KT P6SM SCT035 BKN100
     FM261600 36008G13KT P6SM SCT250
     FM262300 32005KT P6SM SKC=

USA.gov is the U.S. government's official web portal to all federal, state and local government web resources and services.